Time,TemperatureF,DewpointF,PressureIn,WindDirection,WindDirectionDegrees,WindSpeedMPH,WindSpeedGustMPH,Humidity,HourlyPrecipIn,Conditions,Clouds,dailyrainin,SoftwareType,DateUTC
2013-03-08 00:00:00,43.3,34.2,30.23,NNW,330,9.0,13.0,70,0.00,,---,0.00,VWS V14.00,2013-03-08 05:00:00,
2013-03-08 00:01:00,43.2,34.5,30.23,NNW,333,8.0,10.0,71,0.00,,---,0.00,VWS V14.00,2013-03-08 05:01:00,
2013-03-08 00:06:00,43.1,34.3,30.23,NNW,339,10.0,11.0,71,0.00,,---,0.00,VWS V14.00,2013-03-08 05:06:00,
2013-03-08 00:11:00,43.0,34.6,30.23,NNW,328,9.0,12.0,72,0.00,,---,0.00,VWS V14.00,2013-03-08 05:11:00,
2013-03-08 00:16:00,42.9,34.5,30.23,NNW,328,10.0,13.0,72,0.00,,---,0.00,VWS V14.00,2013-03-08 05:16:00,
2013-03-08 00:21:00,42.8,33.7,30.23,NNW,335,8.0,13.0,70,0.00,,---,0.00,VWS V14.00,2013-03-08 05:21:00,
2013-03-08 00:26:00,42.7,33.6,30.23,NNW,339,9.0,13.0,70,0.00,,---,0.00,VWS V14.00,2013-03-08 05:26:00,
2013-03-08 00:31:00,42.6,33.9,30.23,NNW,329,9.0,11.0,71,0.00,,---,0.00,VWS V14.00,2013-03-08 05:31:00,
2013-03-08 00:36:00,42.5,33.4,30.23,NW,326,8.0,13.0,70,0.00,,---,0.00,VWS V14.00,2013-03-08 05:36:00,
2013-03-08 00:41:00,42.5,33.8,30.23,NNW,332,10.0,16.0,71,0.00,,---,0.00,VWS V14.00,2013-03-08 05:41:00,
2013-03-08 00:46:00,42.4,33.3,30.23,NNW,332,11.0,16.0,70,0.00,,---,0.00,VWS V14.00,2013-03-08 05:46:00,
2013-03-08 00:51:00,42.4,33.0,30.23,NNW,338,9.0,16.0,69,0.00,,---,0.00,VWS V14.00,2013-03-08 05:51:00,
2013-03-08 00:56:00,42.3,32.9,30.23,NNW,333,12.0,16.0,69,0.00,,---,0.00,VWS V14.00,2013-03-08 05:56:00,
2013-03-08 01:01:00,42.2,32.8,30.23,NNW,334,9.0,12.0,69,0.00,,---,0.00,VWS V14.00,2013-03-08 06:01:00,
2013-03-08 01:06:00,42.2,33.1,30.23,NNW,338,12.0,15.0,70,0.00,,---,0.00,VWS V14.00,2013-03-08 06:06:00,
2013-03-08 01:11:00,42.2,32.8,30.23,North,352,7.0,15.0,69,0.00,,---,0.00,VWS V14.00,2013-03-08 06:11:00,
2013-03-08 01:16:00,42.2,32.4,30.23,NNW,339,15.0,15.0,68,0.00,,---,0.00,VWS V14.00,2013-03-08 06:16:00,
2013-03-08 01:21:00,42.2,32.8,30.23,NNW,345,10.0,15.0,69,0.00,,---,0.00,VWS V14.00,2013-03-08 06:21:00,
2013-03-08 01:26:00,42.2,33.1,30.22,NNW,332,9.0,15.0,70,0.00,,---,0.00,VWS V14.00,2013-03-08 06:26:00,
2013-03-08 01:31:00,42.1,32.3,30.22,NNW,344,11.0,11.0,68,0.00,,---,0.00,VWS V14.00,2013-03-08 06:31:00,
2013-03-08 01:36:00,42.1,32.7,30.22,NNW,338,7.0,15.0,69,0.00,,---,0.00,VWS V14.00,2013-03-08 06:36:00,
2013-03-08 01:41:00,42.0,32.2,30.23,NNW,343,12.0,15.0,68,0.00,,---,0.00,VWS V14.00,2013-03-08 06:41:00,
2013-03-08 01:46:00,42.0,32.6,30.23,NNW,336,12.0,15.0,69,0.00,,---,0.00,VWS V14.00,2013-03-08 06:46:00,
2013-03-08 01:51:00,41.9,32.1,30.22,NNW,345,11.0,15.0,68,0.00,,---,0.00,VWS V14.00,2013-03-08 06:51:00,
2013-03-08 01:56:00,41.9,32.5,30.22,NNW,341,11.0,15.0,69,0.00,,---,0.00,VWS V14.00,2013-03-08 06:56:00,
2013-03-08 02:01:00,42.0,32.6,30.22,NNW,343,15.0,16.0,69,0.00,,---,0.00,VWS V14.00,2013-03-08 07:01:00,
2013-03-08 02:06:00,42.0,32.9,30.22,NNW,333,11.0,16.0,70,0.00,,---,0.00,VWS V14.00,2013-03-08 07:06:00,
2013-03-08 02:11:00,42.0,32.6,30.22,NNW,328,11.0,16.0,69,0.00,,---,0.00,VWS V14.00,2013-03-08 07:11:00,
2013-03-08 02:16:00,41.9,32.5,30.22,NNW,340,9.0,16.0,69,0.00,,---,0.00,VWS V14.00,2013-03-08 07:16:00,
2013-03-08 02:21:00,41.9,32.5,30.22,NNW,340,9.0,16.0,69,0.00,,---,0.00,VWS V14.00,2013-03-08 07:21:00,
2013-03-08 02:26:00,41.9,32.5,30.22,NNW,341,10.0,16.0,69,0.00,,---,0.00,VWS V14.00,2013-03-08 07:26:00,
2013-03-08 02:31:00,41.8,32.4,30.21,NNW,338,7.0,9.0,69,0.00,,---,0.00,VWS V14.00,2013-03-08 07:31:00,
2013-03-08 02:36:00,41.8,32.8,30.21,NNW,330,10.0,12.0,70,0.00,,---,0.00,VWS V14.00,2013-03-08 07:36:00,
2013-03-08 02:41:00,41.6,32.6,30.21,NW,318,7.0,12.0,70,0.00,,---,0.00,VWS V14.00,2013-03-08 07:41:00,
2013-03-08 02:46:00,41.5,32.5,30.21,NW,324,8.0,13.0,70,0.00,,---,0.00,VWS V14.00,2013-03-08 07:46:00,
2013-03-08 02:51:00,41.4,32.0,30.21,NNW,344,7.0,13.0,69,0.00,,---,0.00,VWS V14.00,2013-03-08 07:51:00,
2013-03-08 02:56:00,41.4,32.4,30.21,NNW,337,10.0,13.0,70,0.00,,---,0.00,VWS V14.00,2013-03-08 07:56:00,
2013-03-08 03:01:00,41.3,32.6,30.21,NNW,341,6.0,11.0,71,0.00,,---,0.00,VWS V14.00,2013-03-08 08:01:00,
2013-03-08 03:06:00,41.3,33.0,30.20,NNW,328,9.0,11.0,72,0.00,,---,0.00,VWS V14.00,2013-03-08 08:06:00,
2013-03-08 03:11:00,41.3,32.6,30.20,NNW,331,11.0,14.0,71,0.00,,---,0.00,VWS V14.00,2013-03-08 08:11:00,
2013-03-08 03:16:00,41.3,33.0,30.20,NW,326,8.0,14.0,72,0.00,,---,0.00,VWS V14.00,2013-03-08 08:16:00,
2013-03-08 03:21:00,41.1,32.1,30.20,NNW,328,11.0,14.0,70,0.00,,---,0.00,VWS V14.00,2013-03-08 08:21:00,
2013-03-08 03:26:00,40.9,32.6,30.21,NW,326,8.0,14.0,72,0.00,,---,0.00,VWS V14.00,2013-03-08 08:26:00,
2013-03-08 03:31:00,40.8,32.5,30.20,NNW,327,10.0,12.0,72,0.00,,---,0.00,VWS V14.00,2013-03-08 08:31:00,
2013-03-08 03:36:00,40.7,32.0,30.20,NNW,327,13.0,13.0,71,0.00,,---,0.00,VWS V14.00,2013-03-08 08:36:00,
2013-03-08 03:41:00,40.5,32.2,30.20,NNW,328,12.0,13.0,72,0.00,,---,0.00,VWS V14.00,2013-03-08 08:41:00,
2013-03-08 03:46:00,40.5,32.5,30.20,NNW,331,9.0,13.0,73,0.00,,---,0.00,VWS V14.00,2013-03-08 08:46:00,
2013-03-08 03:51:00,40.4,32.4,30.20,NNW,340,12.0,14.0,73,0.00,,---,0.00,VWS V14.00,2013-03-08 08:51:00,
2013-03-08 03:56:00,40.4,32.8,30.20,NNW,330,13.0,14.0,74,0.00,,---,0.00,VWS V14.00,2013-03-08 08:56:00,
2013-03-08 04:01:00,40.3,32.7,30.21,NNW,332,10.0,14.0,74,0.00,,---,0.00,VWS V14.00,2013-03-08 09:01:00,
2013-03-08 04:06:00,40.2,32.6,30.21,NNW,337,8.0,14.0,74,0.00,,---,0.00,VWS V14.00,2013-03-08 09:06:00,
2013-03-08 04:11:00,40.0,32.1,30.21,NNW,330,11.0,14.0,73,0.00,,---,0.00,VWS V14.00,2013-03-08 09:11:00,
2013-03-08 04:16:00,39.9,32.3,30.21,NNW,328,10.0,14.0,74,0.00,,---,0.00,VWS V14.00,2013-03-08 09:16:00,
2013-03-08 04:21:00,39.8,32.5,30.21,NNW,334,12.0,14.0,75,0.00,,---,0.00,VWS V14.00,2013-03-08 09:21:00,
2013-03-08 04:26:00,39.7,32.1,30.21,NNW,329,13.0,15.0,74,0.00,,---,0.00,VWS V14.00,2013-03-08 09:26:00,
2013-03-08 04:31:00,39.7,32.1,30.21,NNW,331,12.0,14.0,74,0.00,,---,0.00,VWS V14.00,2013-03-08 09:31:00,
2013-03-08 04:36:00,39.6,32.3,30.22,NW,326,14.0,15.0,75,0.00,,---,0.00,VWS V14.00,2013-03-08 09:36:00,
2013-03-08 04:41:00,39.6,33.3,30.22,NNW,330,13.0,15.0,78,0.00,,---,0.00,VWS V14.00,2013-03-08 09:41:00,
2013-03-08 04:46:00,39.6,32.7,30.22,NNW,329,13.0,15.0,76,0.00,,---,0.00,VWS V14.00,2013-03-08 09:46:00,
2013-03-08 04:51:00,39.5,32.2,30.22,NW,326,11.0,15.0,75,0.00,,---,0.00,VWS V14.00,2013-03-08 09:51:00,
2013-03-08 04:56:00,39.4,32.5,30.22,NW,324,11.0,18.0,76,0.00,,---,0.00,VWS V14.00,2013-03-08 09:56:00,
2013-03-08 05:01:00,39.3,32.4,30.22,NW,322,13.0,14.0,76,0.00,,---,0.00,VWS V14.00,2013-03-08 10:01:00,
2013-03-08 05:06:00,39.3,32.7,30.23,NW,317,11.0,15.0,77,0.00,,---,0.00,VWS V14.00,2013-03-08 10:06:00,
2013-03-08 05:11:00,39.1,32.2,30.23,NW,319,14.0,16.0,76,0.00,,---,0.00,VWS V14.00,2013-03-08 10:11:00,
2013-03-08 05:16:00,39.0,32.4,30.23,NNW,330,15.0,17.0,77,0.00,,---,0.00,VWS V14.00,2013-03-08 10:16:00,
2013-03-08 05:21:00,38.9,32.3,30.23,NNW,327,13.0,17.0,77,0.00,,---,0.00,VWS V14.00,2013-03-08 10:21:00,
2013-03-08 05:26:00,38.9,32.3,30.23,NNW,330,14.0,17.0,77,0.00,,---,0.00,VWS V14.00,2013-03-08 10:26:00,
2013-03-08 05:31:00,38.8,32.5,30.24,NNW,332,13.0,13.0,78,0.00,,---,0.00,VWS V14.00,2013-03-08 10:31:00,
2013-03-08 05:36:00,38.8,32.5,30.23,NNW,331,11.0,15.0,78,0.00,,---,0.00,VWS V14.00,2013-03-08 10:36:00,
2013-03-08 05:41:00,38.7,32.4,30.23,NNW,332,11.0,15.0,78,0.00,,---,0.00,VWS V14.00,2013-03-08 10:41:00,
2013-03-08 05:46:00,38.6,33.0,30.24,NW,323,13.0,15.0,80,0.00,,---,0.00,VWS V14.00,2013-03-08 10:46:00,
2013-03-08 05:51:00,38.5,32.6,30.23,NNW,337,10.0,15.0,79,0.00,,---,0.00,VWS V14.00,2013-03-08 10:51:00,
2013-03-08 05:56:00,38.3,32.0,30.23,NNW,336,10.0,15.0,78,0.00,,---,0.00,VWS V14.00,2013-03-08 10:56:00,
2013-03-08 06:01:00,38.1,32.5,30.24,NNW,336,9.0,12.0,80,0.00,,---,0.00,VWS V14.00,2013-03-08 11:01:00,
2013-03-08 06:06:00,38.0,32.1,30.23,NW,325,11.0,13.0,79,0.00,,---,0.00,VWS V14.00,2013-03-08 11:06:00,
2013-03-08 06:11:00,38.0,32.7,30.24,NNW,328,8.0,13.0,81,0.00,,---,0.00,VWS V14.00,2013-03-08 11:11:00,
2013-03-08 06:16:00,37.9,32.3,30.24,NNW,330,10.0,13.0,80,0.00,,---,0.00,VWS V14.00,2013-03-08 11:16:00,
2013-03-08 06:21:00,37.8,32.2,30.24,NNW,333,8.0,13.0,80,0.00,,---,0.00,VWS V14.00,2013-03-08 11:21:00,
2013-03-08 06:26:00,37.7,32.1,30.24,NNW,337,8.0,13.0,80,0.00,,---,0.00,VWS V14.00,2013-03-08 11:26:00,
2013-03-08 06:31:00,37.6,32.3,30.24,NW,325,11.0,11.0,81,0.00,,---,0.00,VWS V14.00,2013-03-08 11:31:00,
2013-03-08 06:36:00,37.6,32.0,30.24,NNW,334,10.0,12.0,80,0.00,,---,0.00,VWS V14.00,2013-03-08 11:36:00,
2013-03-08 06:41:00,37.5,32.2,30.24,NNW,344,10.0,13.0,81,0.00,,---,0.00,VWS V14.00,2013-03-08 11:41:00,
2013-03-08 06:46:00,37.5,32.5,30.24,NNW,336,11.0,13.0,82,0.00,,---,0.00,VWS V14.00,2013-03-08 11:46:00,
2013-03-08 06:51:00,37.5,32.2,30.25,NNW,344,11.0,13.0,81,0.00,,---,0.00,VWS V14.00,2013-03-08 11:51:00,
2013-03-08 06:56:00,37.5,31.9,30.25,NNW,340,7.0,13.0,80,0.00,,---,0.00,VWS V14.00,2013-03-08 11:56:00,
2013-03-08 07:01:00,37.4,32.1,30.25,NNW,330,10.0,11.0,81,0.00,,---,0.00,VWS V14.00,2013-03-08 12:01:00,
2013-03-08 07:06:00,37.4,32.1,30.25,NNW,331,10.0,12.0,81,0.00,,---,0.00,VWS V14.00,2013-03-08 12:06:00,
2013-03-08 07:11:00,37.4,31.8,30.26,NNW,333,8.0,12.0,80,0.00,,---,0.00,VWS V14.00,2013-03-08 12:11:00,
2013-03-08 07:16:00,37.3,32.0,30.26,NW,324,11.0,12.0,81,0.00,,---,0.00,VWS V14.00,2013-03-08 12:16:00,
2013-03-08 07:21:00,37.3,32.0,30.26,NNW,332,8.0,13.0,81,0.00,,---,0.00,VWS V14.00,2013-03-08 12:21:00,
2013-03-08 07:26:00,37.4,32.1,30.26,NNW,346,8.0,13.0,81,0.00,,---,0.00,VWS V14.00,2013-03-08 12:26:00,
2013-03-08 07:31:00,37.5,31.9,30.26,NNW,329,9.0,12.0,80,0.00,,---,0.00,VWS V14.00,2013-03-08 12:31:00,
2013-03-08 07:36:00,37.6,32.3,30.27,NNW,329,12.0,13.0,81,0.00,,---,0.00,VWS V14.00,2013-03-08 12:36:00,
2013-03-08 07:41:00,37.8,32.5,30.27,NNW,344,7.0,13.0,81,0.00,,---,0.00,VWS V14.00,2013-03-08 12:41:00,
2013-03-08 07:46:00,37.9,32.3,30.27,NNW,345,11.0,13.0,80,0.00,,---,0.00,VWS V14.00,2013-03-08 12:46:00,
2013-03-08 07:51:00,38.2,32.6,30.27,North,353,13.0,17.0,80,0.00,,---,0.00,VWS V14.00,2013-03-08 12:51:00,
2013-03-08 07:56:00,38.5,31.9,30.27,North,357,8.0,17.0,77,0.00,,---,0.00,VWS V14.00,2013-03-08 12:56:00,
2013-03-08 08:01:00,38.9,32.6,30.27,North,351,9.0,14.0,78,0.00,,---,0.00,VWS V14.00,2013-03-08 13:01:00,
2013-03-08 08:06:00,39.3,32.4,30.27,North,1,13.0,17.0,76,0.00,,---,0.00,VWS V14.00,2013-03-08 13:06:00,
2013-03-08 08:11:00,39.8,32.2,30.26,NNW,336,18.0,22.0,74,0.00,,---,0.00,VWS V14.00,2013-03-08 13:11:00,
2013-03-08 08:16:00,40.3,32.0,30.26,North,355,10.0,23.0,72,0.00,,---,0.00,VWS V14.00,2013-03-08 13:16:00,
2013-03-08 08:21:00,40.4,31.8,30.26,North,4,17.0,23.0,71,0.00,,---,0.00,VWS V14.00,2013-03-08 13:21:00,
2013-03-08 08:26:00,40.7,32.0,30.26,North,3,15.0,23.0,71,0.00,,---,0.00,VWS V14.00,2013-03-08 13:26:00,
2013-03-08 08:31:00,40.9,31.9,30.26,North,357,12.0,25.0,70,0.00,,---,0.00,VWS V14.00,2013-03-08 13:31:00,
2013-03-08 08:36:00,41.0,32.0,30.26,North,5,14.0,25.0,70,0.00,,---,0.00,VWS V14.00,2013-03-08 13:36:00,
2013-03-08 08:41:00,41.1,32.4,30.26,North,4,14.0,25.0,71,0.00,,---,0.00,VWS V14.00,2013-03-08 13:41:00,
2013-03-08 08:46:00,41.2,32.9,30.26,NNE,12,9.0,25.0,72,0.00,,---,0.00,VWS V14.00,2013-03-08 13:46:00,
2013-03-08 08:51:00,41.4,32.4,30.25,North,354,15.0,25.0,70,0.00,,---,0.00,VWS V14.00,2013-03-08 13:51:00,
2013-03-08 08:56:00,41.5,32.5,30.25,NNW,345,16.0,25.0,70,0.00,,---,0.00,VWS V14.00,2013-03-08 13:56:00,
2013-03-08 09:01:00,41.5,32.1,30.25,NNE,20,11.0,14.0,69,0.00,,---,0.00,VWS V14.00,2013-03-08 14:01:00,
2013-03-08 09:06:00,41.6,32.6,30.26,North,10,15.0,21.0,70,0.00,,---,0.00,VWS V14.00,2013-03-08 14:06:00,
2013-03-08 09:11:00,41.7,33.0,30.25,North,352,14.0,22.0,71,0.00,,---,0.00,VWS V14.00,2013-03-08 14:11:00,
2013-03-08 09:16:00,41.9,32.8,30.26,North,354,14.0,22.0,70,0.00,,---,0.00,VWS V14.00,2013-03-08 14:16:00,
2013-03-08 09:21:00,42.0,32.6,30.26,North,349,16.0,22.0,69,0.00,,---,0.00,VWS V14.00,2013-03-08 14:21:00,
2013-03-08 09:26:00,42.2,33.1,30.25,North,4,12.0,22.0,70,0.00,,---,0.00,VWS V14.00,2013-03-08 14:26:00,
2013-03-08 09:31:00,42.4,33.0,30.26,NNE,15,20.0,20.0,69,0.00,,---,0.00,VWS V14.00,2013-03-08 14:31:00,
2013-03-08 09:36:00,42.5,32.7,30.25,North,353,15.0,21.0,68,0.00,,---,0.00,VWS V14.00,2013-03-08 14:36:00,
2013-03-08 09:41:00,42.7,33.6,30.25,NNW,346,14.0,21.0,70,0.00,,---,0.00,VWS V14.00,2013-03-08 14:41:00,
2013-03-08 09:46:00,42.8,32.6,30.25,NNW,346,24.0,27.0,67,0.00,,---,0.00,VWS V14.00,2013-03-08 14:46:00,
2013-03-08 09:51:00,42.9,32.7,30.25,North,6,17.0,28.0,67,0.00,,---,0.00,VWS V14.00,2013-03-08 14:51:00,
2013-03-08 09:56:00,43.1,32.5,30.25,NNW,331,17.0,29.0,66,0.00,,---,0.00,VWS V14.00,2013-03-08 14:56:00,
2013-03-08 10:01:00,43.3,33.1,30.25,North,349,15.0,21.0,67,0.00,,---,0.00,VWS V14.00,2013-03-08 15:01:00,
2013-03-08 10:06:00,43.4,32.8,30.24,NNW,345,10.0,22.0,66,0.00,,---,0.00,VWS V14.00,2013-03-08 15:06:00,
2013-03-08 10:11:00,43.5,33.7,30.24,NNW,332,21.0,25.0,68,0.00,,---,0.00,VWS V14.00,2013-03-08 15:11:00,
2013-03-08 10:16:00,43.8,33.9,30.24,NW,325,27.0,27.0,68,0.00,,---,0.00,VWS V14.00,2013-03-08 15:16:00,
2013-03-08 10:21:00,43.9,33.3,30.24,NNW,338,24.0,28.0,66,0.00,,---,0.00,VWS V14.00,2013-03-08 15:21:00,
2013-03-08 10:26:00,44.0,33.0,30.24,NNW,344,16.0,28.0,65,0.00,,---,0.00,VWS V14.00,2013-03-08 15:26:00,
2013-03-08 10:31:00,44.2,34.3,30.24,NNW,343,19.0,21.0,68,0.00,,---,0.00,VWS V14.00,2013-03-08 15:31:00,
2013-03-08 10:36:00,44.3,34.0,30.24,NNW,338,19.0,26.0,67,0.00,,---,0.00,VWS V14.00,2013-03-08 15:36:00,
2013-03-08 10:41:00,44.3,32.9,30.24,NNW,341,18.0,26.0,64,0.00,,---,0.00,VWS V14.00,2013-03-08 15:41:00,
2013-03-08 10:46:00,44.4,32.6,30.24,North,350,19.0,26.0,63,0.00,,---,0.00,VWS V14.00,2013-03-08 15:46:00,
2013-03-08 10:51:00,44.4,32.2,30.23,NNW,348,17.0,28.0,62,0.00,,---,0.00,VWS V14.00,2013-03-08 15:51:00,
2013-03-08 10:56:00,44.5,33.1,30.23,North,5,13.0,28.0,64,0.00,,---,0.00,VWS V14.00,2013-03-08 15:56:00,
2013-03-08 11:01:00,44.6,32.8,30.23,North,352,20.0,23.0,63,0.00,,---,0.00,VWS V14.00,2013-03-08 16:01:00,
2013-03-08 11:06:00,44.6,32.4,30.23,NNW,342,20.0,24.0,62,0.00,,---,0.00,VWS V14.00,2013-03-08 16:06:00,
2013-03-08 11:11:00,44.8,33.0,30.23,NNW,343,17.0,24.0,63,0.00,,---,0.00,VWS V14.00,2013-03-08 16:11:00,
2013-03-08 11:16:00,45.1,34.0,30.22,NNW,347,14.0,25.0,65,0.00,,---,0.00,VWS V14.00,2013-03-08 16:16:00,
2013-03-08 11:21:00,45.2,33.4,30.22,North,1,11.0,25.0,63,0.00,,---,0.00,VWS V14.00,2013-03-08 16:21:00,
2013-03-08 11:26:00,45.3,33.5,30.22,NNW,327,19.0,25.0,63,0.00,,---,0.00,VWS V14.00,2013-03-08 16:26:00,
2013-03-08 11:31:00,45.4,32.8,30.22,NNW,333,22.0,25.0,61,0.00,,---,0.00,VWS V14.00,2013-03-08 16:31:00,
2013-03-08 11:36:00,45.5,32.8,30.22,NW,324,27.0,27.0,61,0.00,,---,0.00,VWS V14.00,2013-03-08 16:36:00,
2013-03-08 11:41:00,45.7,33.0,30.21,NNW,329,22.0,31.0,61,0.00,,---,0.00,VWS V14.00,2013-03-08 16:41:00,
2013-03-08 11:46:00,45.9,33.2,30.21,NNW,345,21.0,31.0,61,0.00,,---,0.00,VWS V14.00,2013-03-08 16:46:00,
2013-03-08 11:51:00,46.0,32.9,30.21,North,357,19.0,31.0,60,0.00,,---,0.00,VWS V14.00,2013-03-08 16:51:00,
2013-03-08 11:56:00,46.1,32.6,30.21,North,351,18.0,31.0,59,0.00,,---,0.00,VWS V14.00,2013-03-08 16:56:00,
2013-03-08 12:01:00,46.2,32.7,30.21,NNW,345,23.0,30.0,59,0.00,,---,0.00,VWS V14.00,2013-03-08 17:01:00,
2013-03-08 12:06:00,46.4,33.3,30.20,NNW,337,20.0,30.0,60,0.00,,---,0.00,VWS V14.00,2013-03-08 17:06:00,
2013-03-08 12:11:00,46.5,32.5,30.19,North,0,24.0,30.0,58,0.00,,---,0.00,VWS V14.00,2013-03-08 17:11:00,
2013-03-08 12:16:00,46.7,32.3,30.19,NNW,345,18.0,30.0,57,0.00,,---,0.00,VWS V14.00,2013-03-08 17:16:00,
2013-03-08 12:21:00,46.8,32.0,30.19,NNW,347,21.0,30.0,56,0.00,,---,0.00,VWS V14.00,2013-03-08 17:21:00,
2013-03-08 12:26:00,46.9,31.6,30.19,North,352,16.0,30.0,55,0.00,,---,0.00,VWS V14.00,2013-03-08 17:26:00,
2013-03-08 12:31:00,47.1,31.8,30.18,North,354,25.0,25.0,55,0.00,,---,0.00,VWS V14.00,2013-03-08 17:31:00,
2013-03-08 12:36:00,47.3,32.0,30.18,NNW,339,18.0,27.0,55,0.00,,---,0.00,VWS V14.00,2013-03-08 17:36:00,
2013-03-08 12:41:00,47.5,32.2,30.17,North,352,14.0,27.0,55,0.00,,---,0.00,VWS V14.00,2013-03-08 17:41:00,
2013-03-08 12:46:00,47.6,32.2,30.17,North,351,23.0,27.0,55,0.00,,---,0.00,VWS V14.00,2013-03-08 17:46:00,
2013-03-08 12:51:00,47.7,31.4,30.17,North,0,17.0,27.0,53,0.00,,---,0.00,VWS V14.00,2013-03-08 17:51:00,
2013-03-08 12:56:00,47.8,32.4,30.17,North,350,17.0,27.0,55,0.00,,---,0.00,VWS V14.00,2013-03-08 17:56:00,
2013-03-08 13:01:00,48.1,32.7,30.17,North,8,21.0,21.0,55,0.00,,---,0.00,VWS V14.00,2013-03-08 18:01:00,
2013-03-08 13:06:00,48.3,32.4,30.16,North,353,19.0,28.0,54,0.00,,---,0.00,VWS V14.00,2013-03-08 18:06:00,
2013-03-08 13:11:00,48.4,33.0,30.16,NNW,343,9.0,28.0,55,0.00,,---,0.00,VWS V14.00,2013-03-08 18:11:00,
2013-03-08 13:16:00,48.7,33.3,30.15,NW,326,24.0,28.0,55,0.00,,---,0.00,VWS V14.00,2013-03-08 18:16:00,
2013-03-08 13:21:00,49.1,32.2,30.15,NNW,347,20.0,29.0,52,0.00,,---,0.00,VWS V14.00,2013-03-08 18:21:00,
2013-03-08 13:26:00,49.2,34.2,30.15,NNW,346,19.0,29.0,56,0.00,,---,0.00,VWS V14.00,2013-03-08 18:26:00,
2013-03-08 13:31:00,49.3,32.9,30.14,NNW,336,15.0,25.0,53,0.00,,---,0.00,VWS V14.00,2013-03-08 18:31:00,
2013-03-08 13:36:00,49.5,33.1,30.14,North,10,17.0,25.0,53,0.00,,---,0.00,VWS V14.00,2013-03-08 18:36:00,
2013-03-08 13:41:00,49.5,32.6,30.15,North,352,17.0,25.0,52,0.00,,---,0.00,VWS V14.00,2013-03-08 18:41:00,
2013-03-08 13:46:00,49.8,33.8,30.15,North,351,17.0,27.0,54,0.00,,---,0.00,VWS V14.00,2013-03-08 18:46:00,
2013-03-08 13:51:00,49.8,30.9,30.15,NNW,342,19.0,33.0,48,0.00,,---,0.00,VWS V14.00,2013-03-08 18:51:00,
2013-03-08 13:56:00,50.0,33.1,30.15,NNW,344,14.0,33.0,52,0.00,,---,0.00,VWS V14.00,2013-03-08 18:56:00,
2013-03-08 14:01:00,50.1,33.2,30.15,NNW,346,17.0,23.0,52,0.00,,---,0.00,VWS V14.00,2013-03-08 19:01:00,
2013-03-08 14:06:00,50.3,32.9,30.14,NNW,334,18.0,23.0,51,0.00,,---,0.00,VWS V14.00,2013-03-08 19:06:00,
2013-03-08 14:11:00,50.5,32.6,30.14,North,2,15.0,27.0,50,0.00,,---,0.00,VWS V14.00,2013-03-08 19:11:00,
2013-03-08 14:16:00,50.4,33.0,30.14,North,355,16.0,27.0,51,0.00,,---,0.00,VWS V14.00,2013-03-08 19:16:00,
2013-03-08 14:21:00,50.4,33.9,30.14,North,353,17.0,27.0,53,0.00,,---,0.00,VWS V14.00,2013-03-08 19:21:00,
2013-03-08 14:26:00,50.5,33.1,30.14,North,353,23.0,27.0,51,0.00,,---,0.00,VWS V14.00,2013-03-08 19:26:00,
2013-03-08 14:31:00,50.7,34.2,30.14,NNW,341,17.0,17.0,53,0.00,,---,0.00,VWS V14.00,2013-03-08 19:31:00,
2013-03-08 14:36:00,50.8,32.8,30.14,NNW,345,17.0,26.0,50,0.00,,---,0.00,VWS V14.00,2013-03-08 19:36:00,
2013-03-08 14:41:00,50.9,33.9,30.14,NNW,347,20.0,31.0,52,0.00,,---,0.00,VWS V14.00,2013-03-08 19:41:00,
2013-03-08 14:46:00,51.0,33.5,30.14,NNW,340,15.0,31.0,51,0.00,,---,0.00,VWS V14.00,2013-03-08 19:46:00,
2013-03-08 14:51:00,51.1,32.6,30.14,NNW,338,24.0,31.0,49,0.00,,---,0.00,VWS V14.00,2013-03-08 19:51:00,
2013-03-08 14:56:00,51.1,33.1,30.14,North,354,17.0,31.0,50,0.00,,---,0.00,VWS V14.00,2013-03-08 19:56:00,
2013-03-08 15:01:00,50.9,32.4,30.14,North,350,24.0,25.0,49,0.00,,---,0.00,VWS V14.00,2013-03-08 20:01:00,
2013-03-08 15:06:00,51.0,32.5,30.13,NNW,345,19.0,29.0,49,0.00,,---,0.00,VWS V14.00,2013-03-08 20:06:00,
2013-03-08 15:11:00,51.1,33.6,30.14,NNW,343,14.0,29.0,51,0.00,,---,0.00,VWS V14.00,2013-03-08 20:11:00,
2013-03-08 15:16:00,51.1,33.1,30.13,North,358,12.0,29.0,50,0.00,,---,0.00,VWS V14.00,2013-03-08 20:16:00,
2013-03-08 15:21:00,51.2,34.7,30.14,NNW,327,16.0,29.0,53,0.00,,---,0.00,VWS V14.00,2013-03-08 20:21:00,
2013-03-08 15:26:00,51.3,33.8,30.14,NNW,343,22.0,29.0,51,0.00,,---,0.00,VWS V14.00,2013-03-08 20:26:00,
2013-03-08 15:31:00,51.3,33.8,30.14,North,353,20.0,24.0,51,0.00,,---,0.00,VWS V14.00,2013-03-08 20:31:00,
2013-03-08 15:36:00,51.2,33.2,30.14,North,352,18.0,24.0,50,0.00,,---,0.00,VWS V14.00,2013-03-08 20:36:00,
2013-03-08 15:41:00,51.3,33.8,30.14,North,2,21.0,24.0,51,0.00,,---,0.00,VWS V14.00,2013-03-08 20:41:00,
2013-03-08 15:46:00,51.4,33.4,30.14,North,358,18.0,27.0,50,0.00,,---,0.00,VWS V14.00,2013-03-08 20:46:00,
2013-03-08 15:51:00,51.4,34.4,30.14,North,355,15.0,27.0,52,0.00,,---,0.00,VWS V14.00,2013-03-08 20:51:00,
2013-03-08 15:56:00,51.5,33.5,30.14,North,352,12.0,27.0,50,0.00,,---,0.00,VWS V14.00,2013-03-08 20:56:00,
2013-03-08 16:01:00,51.6,33.1,30.14,North,352,19.0,20.0,49,0.00,,---,0.00,VWS V14.00,2013-03-08 21:01:00,
2013-03-08 16:06:00,51.6,34.1,30.14,NNE,16,17.0,23.0,51,0.00,,---,0.00,VWS V14.00,2013-03-08 21:06:00,
2013-03-08 16:11:00,51.7,33.2,30.14,North,354,9.0,24.0,49,0.00,,---,0.00,VWS V14.00,2013-03-08 21:11:00,
2013-03-08 16:16:00,51.8,34.3,30.14,North,349,14.0,24.0,51,0.00,,---,0.00,VWS V14.00,2013-03-08 21:16:00,
2013-03-08 16:21:00,51.9,35.3,30.15,NW,318,12.0,24.0,53,0.00,,---,0.00,VWS V14.00,2013-03-08 21:21:00,
2013-03-08 16:26:00,51.9,34.4,30.15,NNW,331,14.0,24.0,51,0.00,,---,0.00,VWS V14.00,2013-03-08 21:26:00,
2013-03-08 16:31:00,52.0,34.9,30.15,North,349,18.0,20.0,52,0.00,,---,0.00,VWS V14.00,2013-03-08 21:31:00,
2013-03-08 16:36:00,52.0,34.0,30.15,North,356,12.0,20.0,50,0.00,,---,0.00,VWS V14.00,2013-03-08 21:36:00,
2013-03-08 16:41:00,52.0,34.5,30.15,NNW,339,14.0,20.0,51,0.00,,---,0.00,VWS V14.00,2013-03-08 21:41:00,
2013-03-08 16:46:00,52.1,34.0,30.15,North,351,11.0,20.0,50,0.00,,---,0.00,VWS V14.00,2013-03-08 21:46:00,
2013-03-08 16:51:00,52.0,33.5,30.15,North,350,17.0,20.0,49,0.00,,---,0.00,VWS V14.00,2013-03-08 21:51:00,
2013-03-08 16:56:00,52.0,35.4,30.16,North,356,11.0,20.0,53,0.00,,---,0.00,VWS V14.00,2013-03-08 21:56:00,
2013-03-08 17:01:00,52.0,34.5,30.16,NNW,343,10.0,13.0,51,0.00,,---,0.00,VWS V14.00,2013-03-08 22:01:00,
2013-03-08 17:06:00,52.0,34.5,30.16,North,2,13.0,16.0,51,0.00,,---,0.00,VWS V14.00,2013-03-08 22:06:00,
2013-03-08 17:11:00,52.0,34.5,30.16,North,349,11.0,17.0,51,0.00,,---,0.00,VWS V14.00,2013-03-08 22:11:00,
2013-03-08 17:16:00,51.9,34.4,30.16,North,353,13.0,17.0,51,0.00,,---,0.00,VWS V14.00,2013-03-08 22:16:00,
2013-03-08 17:21:00,51.8,34.3,30.16,North,356,14.0,18.0,51,0.00,,---,0.00,VWS V14.00,2013-03-08 22:21:00,
2013-03-08 17:26:00,51.8,34.8,30.17,North,356,8.0,18.0,52,0.00,,---,0.00,VWS V14.00,2013-03-08 22:26:00,
2013-03-08 17:31:00,51.7,35.1,30.17,North,359,8.0,14.0,53,0.00,,---,0.00,VWS V14.00,2013-03-08 22:31:00,
2013-03-08 17:36:00,51.6,34.1,30.17,NNW,334,10.0,17.0,51,0.00,,---,0.00,VWS V14.00,2013-03-08 22:36:00,
2013-03-08 17:41:00,51.5,35.0,30.17,NNW,343,9.0,17.0,53,0.00,,---,0.00,VWS V14.00,2013-03-08 22:41:00,
2013-03-08 17:46:00,51.5,35.4,30.17,North,352,9.0,17.0,54,0.00,,---,0.00,VWS V14.00,2013-03-08 22:46:00,
2013-03-08 17:51:00,51.4,34.4,30.17,North,357,9.0,17.0,52,0.00,,---,0.00,VWS V14.00,2013-03-08 22:51:00,
2013-03-08 17:56:00,51.2,34.7,30.18,NNW,346,8.0,17.0,53,0.00,,---,0.00,VWS V14.00,2013-03-08 22:56:00,
2013-03-08 18:01:00,51.1,34.1,30.18,North,359,12.0,12.0,52,0.00,,---,0.00,VWS V14.00,2013-03-08 23:01:00,
2013-03-08 18:06:00,51.0,35.4,30.18,North,358,8.0,13.0,55,0.00,,---,0.00,VWS V14.00,2013-03-08 23:06:00,
2013-03-08 18:11:00,50.8,34.8,30.18,North,357,8.0,16.0,54,0.00,,---,0.00,VWS V14.00,2013-03-08 23:11:00,
2013-03-08 18:16:00,50.6,34.6,30.19,NNW,347,7.0,16.0,54,0.00,,---,0.00,VWS V14.00,2013-03-08 23:16:00,
2013-03-08 18:21:00,50.5,34.5,30.19,NNW,347,7.0,16.0,54,0.00,,---,0.00,VWS V14.00,2013-03-08 23:21:00,
2013-03-08 18:26:00,50.4,35.3,30.19,North,351,7.0,16.0,56,0.00,,---,0.00,VWS V14.00,2013-03-08 23:26:00,
2013-03-08 18:31:00,50.2,36.0,30.19,NNW,344,7.0,7.0,58,0.00,,---,0.00,VWS V14.00,2013-03-08 23:31:00,
2013-03-08 18:36:00,50.0,35.8,30.19,North,359,4.0,7.0,58,0.00,,---,0.00,VWS V14.00,2013-03-08 23:36:00,
2013-03-08 18:41:00,49.9,35.7,30.20,North,351,4.0,8.0,58,0.00,,---,0.00,VWS V14.00,2013-03-08 23:41:00,
2013-03-08 18:46:00,49.7,35.1,30.20,North,356,8.0,10.0,57,0.00,,---,0.00,VWS V14.00,2013-03-08 23:46:00,
2013-03-08 18:51:00,49.6,35.5,30.20,NNW,341,7.0,10.0,58,0.00,,---,0.00,VWS V14.00,2013-03-08 23:51:00,
2013-03-08 18:56:00,49.5,36.2,30.20,NNW,344,6.0,10.0,60,0.00,,---,0.00,VWS V14.00,2013-03-08 23:56:00,
2013-03-08 19:01:00,49.3,36.8,30.20,NNW,344,4.0,7.0,62,0.00,,---,0.00,VWS V14.00,2013-03-09 00:01:00,
2013-03-08 19:06:00,49.2,36.8,30.21,NNW,334,4.0,7.0,62,0.00,,---,0.00,VWS V14.00,2013-03-09 00:06:00,
2013-03-08 19:11:00,49.0,36.6,30.21,NNW,336,4.0,7.0,62,0.00,,---,0.00,VWS V14.00,2013-03-09 00:11:00,
2013-03-08 19:16:00,48.8,36.0,30.21,NNW,340,5.0,7.0,61,0.00,,---,0.00,VWS V14.00,2013-03-09 00:16:00,
2013-03-08 19:21:00,48.7,35.5,30.21,North,0,5.0,8.0,60,0.00,,---,0.00,VWS V14.00,2013-03-09 00:21:00,
2013-03-08 19:26:00,48.6,34.9,30.22,North,359,5.0,8.0,59,0.00,,---,0.00,VWS V14.00,2013-03-09 00:26:00,
2013-03-08 19:31:00,48.5,34.8,30.22,North,359,6.0,9.0,59,0.00,,---,0.00,VWS V14.00,2013-03-09 00:31:00,
2013-03-08 19:36:00,48.4,35.2,30.22,North,355,4.0,9.0,60,0.00,,---,0.00,VWS V14.00,2013-03-09 00:36:00,
2013-03-08 19:41:00,48.4,35.2,30.22,North,359,4.0,10.0,60,0.00,,---,0.00,VWS V14.00,2013-03-09 00:41:00,
2013-03-08 19:46:00,48.3,35.5,30.22,NNW,347,6.0,10.0,61,0.00,,---,0.00,VWS V14.00,2013-03-09 00:46:00,
2013-03-08 19:51:00,48.2,35.0,30.22,NNW,345,9.0,10.0,60,0.00,,---,0.00,VWS V14.00,2013-03-09 00:51:00,
2013-03-08 19:56:00,48.1,34.9,30.22,NNW,336,7.0,10.0,60,0.00,,---,0.00,VWS V14.00,2013-03-09 00:56:00,
2013-03-08 20:01:00,47.9,35.5,30.22,NNW,332,7.0,9.0,62,0.00,,---,0.00,VWS V14.00,2013-03-09 01:01:00,
2013-03-08 20:06:00,47.8,35.0,30.22,NNW,329,6.0,9.0,61,0.00,,---,0.00,VWS V14.00,2013-03-09 01:06:00,
2013-03-08 20:11:00,47.7,35.3,30.23,NNW,339,5.0,9.0,62,0.00,,---,0.00,VWS V14.00,2013-03-09 01:11:00,
2013-03-08 20:16:00,47.6,35.2,30.23,North,351,8.0,9.0,62,0.00,,---,0.00,VWS V14.00,2013-03-09 01:16:00,
2013-03-08 20:21:00,47.6,35.2,30.23,North,354,5.0,9.0,62,0.00,,---,0.00,VWS V14.00,2013-03-09 01:21:00,
2013-03-08 20:26:00,47.5,35.5,30.24,North,356,7.0,10.0,63,0.00,,---,0.00,VWS V14.00,2013-03-09 01:26:00,
2013-03-08 20:31:00,47.5,35.1,30.23,North,354,7.0,11.0,62,0.00,,---,0.00,VWS V14.00,2013-03-09 01:31:00,
2013-03-08 20:36:00,47.5,35.1,30.23,North,354,5.0,11.0,62,0.00,,---,0.00,VWS V14.00,2013-03-09 01:36:00,
2013-03-08 20:41:00,47.4,35.0,30.24,North,349,7.0,11.0,62,0.00,,---,0.00,VWS V14.00,2013-03-09 01:41:00,
2013-03-08 20:46:00,47.4,34.6,30.24,North,353,8.0,11.0,61,0.00,,---,0.00,VWS V14.00,2013-03-09 01:46:00,
2013-03-08 20:51:00,47.3,35.0,30.24,North,4,8.0,12.0,62,0.00,,---,0.00,VWS V14.00,2013-03-09 01:51:00,
2013-03-08 20:56:00,47.2,34.9,30.24,North,359,8.0,12.0,62,0.00,,---,0.00,VWS V14.00,2013-03-09 01:56:00,
2013-03-08 21:01:00,47.1,34.8,30.24,North,5,13.0,15.0,62,0.00,,---,0.00,VWS V14.00,2013-03-09 02:01:00,
2013-03-08 21:06:00,47.1,34.8,30.24,North,358,8.0,15.0,62,0.00,,---,0.00,VWS V14.00,2013-03-09 02:06:00,
2013-03-08 21:11:00,47.0,34.7,30.24,North,352,5.0,15.0,62,0.00,,---,0.00,VWS V14.00,2013-03-09 02:11:00,
2013-03-08 21:16:00,46.9,34.6,30.25,North,1,9.0,15.0,62,0.00,,---,0.00,VWS V14.00,2013-03-09 02:16:00,
2013-03-08 21:21:00,46.8,34.9,30.25,North,357,8.0,15.0,63,0.00,,---,0.00,VWS V14.00,2013-03-09 02:21:00,
2013-03-08 21:26:00,46.7,34.4,30.25,North,355,8.0,15.0,62,0.00,,---,0.00,VWS V14.00,2013-03-09 02:26:00,
2013-03-08 21:30:00,46.7,35.2,30.25,North,2,9.0,11.0,64,0.00,,---,0.00,VWS V14.00,2013-03-09 02:30:00,
2013-03-08 21:35:00,46.6,34.7,30.25,North,358,12.0,15.0,63,0.00,,---,0.00,VWS V14.00,2013-03-09 02:35:00,
2013-03-08 21:40:00,46.6,34.7,30.25,North,8,9.0,17.0,63,0.00,,---,0.00,VWS V14.00,2013-03-09 02:40:00,
2013-03-08 21:45:00,46.5,34.6,30.25,North,4,13.0,17.0,63,0.00,,---,0.00,VWS V14.00,2013-03-09 02:45:00,
2013-03-08 21:50:00,46.5,34.6,30.25,North,356,10.0,17.0,63,0.00,,---,0.00,VWS V14.00,2013-03-09 02:50:00,
2013-03-08 21:55:00,46.5,35.0,30.25,NNE,27,11.0,19.0,64,0.00,,---,0.00,VWS V14.00,2013-03-09 02:55:00,
2013-03-08 22:00:00,46.4,35.3,30.25,North,11,13.0,15.0,65,0.00,,---,0.00,VWS V14.00,2013-03-09 03:00:00,
2013-03-08 22:05:00,46.4,35.3,30.25,North,3,12.0,17.0,65,0.00,,---,0.00,VWS V14.00,2013-03-09 03:05:00,
2013-03-08 22:10:00,46.4,34.9,30.25,North,3,14.0,19.0,64,0.00,,---,0.00,VWS V14.00,2013-03-09 03:10:00,
2013-03-08 22:15:00,46.3,34.8,30.26,North,10,11.0,19.0,64,0.00,,---,0.00,VWS V14.00,2013-03-09 03:15:00,
2013-03-08 22:20:00,46.2,35.1,30.26,North,6,10.0,19.0,65,0.00,,---,0.00,VWS V14.00,2013-03-09 03:20:00,
2013-03-08 22:25:00,46.1,35.0,30.25,North,3,11.0,19.0,65,0.00,,---,0.00,VWS V14.00,2013-03-09 03:25:00,
2013-03-08 22:30:00,46.0,34.5,30.25,North,4,13.0,16.0,64,0.00,,---,0.00,VWS V14.00,2013-03-09 03:30:00,
2013-03-08 22:35:00,45.9,34.4,30.25,North,2,10.0,16.0,64,0.00,,---,0.00,VWS V14.00,2013-03-09 03:35:00,
2013-03-08 22:40:00,45.8,35.1,30.25,North,359,10.0,16.0,66,0.00,,---,0.00,VWS V14.00,2013-03-09 03:40:00,
2013-03-08 22:45:00,45.7,34.6,30.25,NNE,20,8.0,16.0,65,0.00,,---,0.00,VWS V14.00,2013-03-09 03:45:00,
2013-03-08 22:50:00,45.7,35.0,30.26,North,354,12.0,16.0,66,0.00,,---,0.00,VWS V14.00,2013-03-09 03:50:00,
2013-03-08 22:55:00,45.6,34.9,30.26,North,352,10.0,20.0,66,0.00,,---,0.00,VWS V14.00,2013-03-09 03:55:00,
2013-03-08 23:00:00,45.5,34.4,30.26,North,357,10.0,19.0,65,0.00,,---,0.00,VWS V14.00,2013-03-09 04:00:00,
2013-03-08 23:05:00,45.4,35.1,30.27,North,357,10.0,19.0,67,0.00,,---,0.00,VWS V14.00,2013-03-09 04:05:00,
2013-03-08 23:10:00,45.3,34.2,30.27,North,358,9.0,19.0,65,0.00,,---,0.00,VWS V14.00,2013-03-09 04:10:00,
2013-03-08 23:15:00,45.3,34.6,30.27,North,357,9.0,19.0,66,0.00,,---,0.00,VWS V14.00,2013-03-09 04:15:00,
2013-03-08 23:20:00,45.2,34.5,30.27,NNW,347,13.0,19.0,66,0.00,,---,0.00,VWS V14.00,2013-03-09 04:20:00,
2013-03-08 23:25:00,45.1,34.4,30.27,North,352,12.0,19.0,66,0.00,,---,0.00,VWS V14.00,2013-03-09 04:25:00,
2013-03-08 23:30:00,45.0,34.3,30.27,North,357,6.0,11.0,66,0.00,,---,0.00,VWS V14.00,2013-03-09 04:30:00,
2013-03-08 23:35:00,44.9,34.2,30.27,North,357,8.0,11.0,66,0.00,,---,0.00,VWS V14.00,2013-03-09 04:35:00,
2013-03-08 23:40:00,44.8,33.8,30.27,North,357,9.0,13.0,65,0.00,,---,0.00,VWS V14.00,2013-03-09 04:40:00,
2013-03-08 23:45:00,44.7,33.7,30.27,North,357,8.0,14.0,65,0.00,,---,0.00,VWS V14.00,2013-03-09 04:45:00,
2013-03-08 23:50:00,44.7,34.4,30.27,North,358,11.0,14.0,67,0.00,,---,0.00,VWS V14.00,2013-03-09 04:50:00,
2013-03-08 23:55:00,44.6,34.7,30.27,North,349,13.0,15.0,68,0.00,,---,0.00,VWS V14.00,2013-03-09 04:55:00,